Time;durP1;ratioP1;P1;durP2;ratioP2;P2;SDS_P1;SDS_P2;PMS_P1;PMS_P2;Temp;Humidity;BMP_temperature;BMP_pressure;BME280_temperature;BME280_humidity;BME280_pressure;Samples;Min_cycle;Max_cycle;Signal;HPM_P1;HPM_P2
2023/04/20 00:01:35;;;;;;;7.72;3.30;;;;;;;9.41;43.94;100754.00;4123144;28;20070;-67
2023/04/20 00:03:38;;;;;;;5.03;3.22;;;;;;;9.37;44.06;100749.59;4101496;28;20059;-68
2023/04/20 00:05:41;;;;;;;6.93;3.15;;;;;;;9.34;44.81;100752.09;4114301;28;20042;-67
2023/04/20 00:07:45;;;;;;;7.00;2.97;;;;;;;9.35;45.15;100751.28;4087728;29;20446;-67
2023/04/20 00:09:48;;;;;;;11.38;4.13;;;;;;;9.34;44.66;100746.06;4114849;28;20462;-67
2023/04/20 00:11:50;;;;;;;7.15;3.10;;;;;;;9.35;44.81;100738.31;4114383;28;20074;-67
2023/04/20 00:13:53;;;;;;;6.15;3.00;;;;;;;9.35;44.41;100742.63;4109284;28;20079;-67
2023/04/20 00:15:56;;;;;;;7.05;3.25;;;;;;;9.29;44.95;100737.28;4114047;28;20547;-67
2023/04/20 00:17:59;;;;;;;5.40;3.45;;;;;;;9.28;45.04;100730.34;4114289;28;20409;-68
2023/04/20 00:20:02;;;;;;;7.55;3.35;;;;;;;9.23;45.23;100723.31;4113475;28;20396;-67
2023/04/20 00:22:05;;;;;;;8.43;3.55;;;;;;;9.19;45.74;100721.50;4113692;28;20393;-67
2023/04/20 00:24:10;;;;;;;9.65;3.38;;;;;;;9.22;45.43;100718.97;4114852;28;20134;-67
2023/04/20 00:26:13;;;;;;;5.13;3.15;;;;;;;9.14;45.36;100723.13;4096875;28;20139;-67
2023/04/20 00:28:17;;;;;;;11.73;3.20;;;;;;;9.15;45.33;100714.47;4097301;28;20079;-67
2023/04/20 00:30:20;;;;;;;7.35;3.83;;;;;;;9.15;45.44;100713.59;4102525;28;20039;-67
2023/04/20 00:32:23;;;;;;;13.13;4.38;;;;;;;9.14;45.21;100709.25;4095705;28;20053;-67
2023/04/20 00:34:26;;;;;;;8.27;3.53;;;;;;;9.07;45.50;100710.84;4096037;28;20039;-67
2023/04/20 00:36:29;;;;;;;5.60;3.30;;;;;;;9.07;45.56;100706.53;4112421;28;20385;-67
2023/04/20 00:38:33;;;;;;;6.72;3.97;;;;;;;9.09;45.31;100709.16;4114474;28;20061;-68
2023/04/20 00:40:37;;;;;;;6.95;4.38;;;;;;;9.14;45.35;100706.66;4112949;28;20035;-68
2023/04/20 00:42:41;;;;;;;4.45;3.20;;;;;;;9.12;45.53;100703.16;4097023;28;20134;-67
2023/04/20 00:44:43;;;;;;;7.78;3.78;;;;;;;9.09;45.33;100697.03;4113376;28;20046;-67
2023/04/20 00:46:46;;;;;;;9.52;3.92;;;;;;;9.03;45.33;100698.63;4104040;28;20049;-68
2023/04/20 00:48:50;;;;;;;6.80;3.53;;;;;;;9.02;45.29;100691.69;4106750;28;20035;-67
2023/04/20 00:50:53;;;;;;;9.57;4.22;;;;;;;8.97;45.09;100691.56;4114036;28;20388;-68
2023/04/20 00:52:56;;;;;;;9.75;4.15;;;;;;;8.89;45.75;100687.91;4113184;28;20444;-67
2023/04/20 00:54:59;;;;;;;6.28;3.35;;;;;;;8.87;45.80;100679.22;4097103;28;20098;-68
2023/04/20 00:57:04;;;;;;;6.35;3.22;;;;;;;8.89;45.83;100685.31;4112699;28;20464;-68
2023/04/20 00:59:10;;;;;;;5.93;3.45;;;;;;;8.90;45.71;100676.72;4119930;28;20385;-67
2023/04/20 01:01:16;;;;;;;8.77;3.78;;;;;;;8.88;45.72;100673.22;4095948;28;20035;-68
2023/04/20 01:03:21;;;;;;;6.90;3.80;;;;;;;8.95;45.04;100676.81;4095473;28;20627;-68
2023/04/20 01:05:25;;;;;;;5.85;3.50;;;;;;;8.82;45.02;100668.75;4097120;28;20090;-68
2023/04/20 01:07:30;;;;;;;5.72;3.45;;;;;;;8.80;44.93;100657.44;4115191;28;20441;-67
2023/04/20 01:09:33;;;;;;;7.25;4.10;;;;;;;8.83;44.96;100659.25;4099064;28;20074;-67
2023/04/20 01:11:36;;;;;;;5.82;3.70;;;;;;;8.74;45.31;100655.56;4108701;28;20055;-67
2023/04/20 01:13:40;;;;;;;8.48;3.58;;;;;;;8.74;45.28;100652.13;4110420;28;20043;-68
2023/04/20 01:15:43;;;;;;;6.85;3.92;;;;;;;8.71;45.46;100655.50;4097256;28;20036;-67
2023/04/20 01:17:45;;;;;;;7.35;3.83;;;;;;;8.68;45.31;100650.25;4101521;28;20054;-67
2023/04/20 01:19:48;;;;;;;8.43;4.00;;;;;;;8.68;45.46;100647.66;4103451;28;20129;-68
2023/04/20 01:21:51;;;;;;;7.95;4.00;;;;;;;8.70;45.26;100643.41;4099716;28;20047;-68
2023/04/20 01:23:55;;;;;;;8.80;4.40;;;;;;;8.73;44.83;100646.06;4105703;28;20039;-68
2023/04/20 01:25:59;;;;;;;10.05;4.03;;;;;;;8.73;44.52;100637.41;4106384;28;20070;-68
2023/04/20 01:28:03;;;;;;;9.45;4.40;;;;;;;8.61;44.67;100648.34;4094525;28;20130;-67
2023/04/20 01:30:07;;;;;;;7.18;4.63;;;;;;;8.59;44.78;100647.44;4109395;28;20496;-67
2023/04/20 01:32:12;;;;;;;7.03;3.78;;;;;;;8.48;44.73;100644.56;4095275;28;20059;-67
2023/04/20 01:34:16;;;;;;;8.95;3.45;;;;;;;8.48;45.12;100636.78;4093426;28;20170;-68
2023/04/20 01:36:20;;;;;;;7.65;3.60;;;;;;;8.35;45.43;100630.41;4095723;28;20127;-67
2023/04/20 01:38:24;;;;;;;6.00;4.05;;;;;;;8.33;45.25;100631.19;4107511;28;20043;-67
2023/04/20 01:40:29;;;;;;;6.07;3.53;;;;;;;8.20;45.87;100617.91;4095870;28;20051;-67
2023/04/20 01:42:34;;;;;;;7.43;3.80;;;;;;;8.27;45.68;100626.72;4088738;28;20127;-67
2023/04/20 01:44:37;;;;;;;6.78;3.85;;;;;;;8.29;45.71;100611.22;4084439;29;20051;-67
2023/04/20 01:46:40;;;;;;;8.88;4.30;;;;;;;8.27;45.97;100613.78;4096079;28;20498;-67
2023/04/20 01:48:43;;;;;;;7.22;3.70;;;;;;;8.35;45.69;100609.69;4106415;28;20035;-67
2023/04/20 01:50:50;;;;;;;8.43;3.85;;;;;;;8.23;45.95;100603.28;4094728;28;20409;-67
2023/04/20 01:52:52;;;;;;;11.60;4.28;;;;;;;8.23;45.92;100604.16;4088451;28;20065;-67
2023/04/20 01:54:55;;;;;;;7.43;4.07;;;;;;;8.24;46.01;100605.06;4107482;28;20034;-67
2023/04/20 01:57:01;;;;;;;6.60;3.97;;;;;;;8.25;46.24;100606.78;4112147;28;20126;-68
2023/04/20 01:59:04;;;;;;;7.00;3.85;;;;;;;8.25;46.26;100604.19;4111765;28;20038;-68
2023/04/20 02:01:08;;;;;;;7.03;4.10;;;;;;;8.24;46.35;100605.06;4111848;28;20485;-68
2023/04/20 02:03:11;;;;;;;9.48;3.97;;;;;;;8.23;46.52;100609.34;4093611;28;20049;-68
2023/04/20 02:05:14;;;;;;;11.13;4.55;;;;;;;8.18;46.80;100605.78;4095958;28;20095;-68
2023/04/20 02:07:17;;;;;;;9.70;4.00;;;;;;;8.23;46.54;100609.34;4116015;28;20043;-68
2023/04/20 02:09:20;;;;;;;8.23;4.13;;;;;;;8.26;46.21;100612.00;4113685;28;20493;-68
2023/04/20 02:11:25;;;;;;;7.90;4.28;;;;;;;8.23;46.50;100611.06;4095959;28;20047;-68
2023/04/20 02:13:29;;;;;;;6.38;3.50;;;;;;;8.12;47.82;100611.66;4111105;28;20043;-68
2023/04/20 02:15:33;;;;;;;8.70;3.90;;;;;;;8.03;48.08;100607.13;4100245;28;20046;-68
2023/04/20 02:17:36;;;;;;;10.10;4.38;;;;;;;8.03;47.64;100608.81;4112721;28;20445;-68
2023/04/20 02:19:39;;;;;;;7.97;4.53;;;;;;;8.08;47.30;100603.78;4096937;28;20047;-67
2023/04/20 02:21:42;;;;;;;13.60;5.03;;;;;;;8.19;47.00;100604.91;4112835;28;20133;-67
2023/04/20 02:23:45;;;;;;;8.93;5.00;;;;;;;8.21;46.68;100600.66;4098955;28;20028;-67
2023/04/20 02:25:48;;;;;;;12.88;4.93;;;;;;;8.19;46.47;100591.97;4097570;28;20051;-67
2023/04/20 02:27:51;;;;;;;10.98;4.68;;;;;;;8.09;46.62;100595.16;4083487;29;20048;-67
2023/04/20 02:29:55;;;;;;;8.95;4.70;;;;;;;8.09;47.01;100595.16;4084356;29;20035;-67
2023/04/20 02:31:58;;;;;;;12.20;4.97;;;;;;;8.04;47.71;100588.16;4092340;28;20051;-67
2023/04/20 02:34:01;;;;;;;7.65;3.72;;;;;;;8.03;47.53;100586.41;4112966;28;20401;-67
2023/04/20 02:36:04;;;;;;;8.57;4.60;;;;;;;8.06;47.59;100582.13;4098425;28;20577;-67
2023/04/20 02:38:08;;;;;;;11.43;5.05;;;;;;;8.04;47.92;100582.97;4083470;29;20051;-67
2023/04/20 02:40:13;;;;;;;6.43;3.80;;;;;;;8.04;47.39;100577.81;4114146;28;20054;-67
2023/04/20 02:42:16;;;;;;;9.45;4.50;;;;;;;8.08;47.53;100577.88;4099578;28;20090;-67
2023/04/20 02:44:19;;;;;;;7.85;3.70;;;;;;;8.08;47.38;100573.56;4100669;28;20043;-68
2023/04/20 02:46:25;;;;;;;8.98;3.10;;;;;;;8.03;47.67;100575.16;4113307;28;20035;-68
2023/04/20 02:48:28;;;;;;;6.93;3.78;;;;;;;8.04;48.23;100567.44;4113560;28;20046;-67
2023/04/20 02:50:31;;;;;;;5.78;3.40;;;;;;;8.09;48.84;100570.16;4099445;28;20035;-68
2023/04/20 02:52:40;;;;;;;5.78;3.58;;;;;;;8.15;48.12;100572.03;4097594;28;20410;-68
2023/04/20 02:54:43;;;;;;;7.60;4.05;;;;;;;8.20;47.62;100565.25;4112989;28;20074;-67
2023/04/20 02:56:47;;;;;;;6.15;3.85;;;;;;;8.18;47.60;100564.34;4101081;28;20132;-67
2023/04/20 02:58:51;;;;;;;7.70;3.78;;;;;;;8.13;47.85;100564.22;4102675;28;20095;-67
2023/04/20 03:01:04;;;;;;;6.05;3.42;;;;;;;8.16;47.54;100560.81;4097861;28;20043;-67
2023/04/20 03:03:09;;;;;;;9.67;5.17;;;;;;;8.21;47.19;100560.09;4112630;28;20050;-67
2023/04/20 03:05:12;;;;;;;;;;;;;;;8.23;46.92;100562.72;4105351;28;20042;-67
2023/04/20 03:07:18;;;;;;;6.60;3.53;;;;;;;8.12;47.55;100559.88;4098843;28;19969;-67
2023/04/20 03:09:23;;;;;;;6.53;3.92;;;;;;;8.12;47.42;100558.97;4111816;28;20094;-68
2023/04/20 03:11:33;;;;;;;7.75;4.90;;;;;;;8.10;47.32;100558.94;4098125;28;20045;-68
2023/04/20 03:13:36;;;;;;;9.60;4.03;;;;;;;8.06;47.76;100558.81;4099400;28;20039;-68
2023/04/20 03:15:39;;;;;;;11.38;4.10;;;;;;;7.97;47.66;100555.19;4096388;28;20398;-67
2023/04/20 03:17:53;;;;;;;9.93;3.80;;;;;;;7.94;48.06;100555.06;4098505;28;20523;-68
2023/04/20 03:19:58;;;;;;;6.20;3.72;;;;;;;8.02;47.89;100556.16;4111010;28;20045;-68
2023/04/20 03:22:01;;;;;;;7.22;4.20;;;;;;;8.06;47.72;100549.38;4104711;28;20042;-68
2023/04/20 03:24:06;;;;;;;9.63;4.57;;;;;;;8.11;47.34;100552.06;4095634;28;20040;-68
2023/04/20 03:26:09;;;;;;;9.48;4.75;;;;;;;8.03;48.28;100547.56;4111445;28;20094;-68
2023/04/20 03:28:35;;;;;;;;;;;;;;;7.97;48.04;100542.25;4112481;28;20047;-67
2023/04/20 03:30:38;;;;;;;10.82;4.85;;;;;;;8.01;48.47;100554.41;4097072;28;20021;-67
2023/04/20 03:32:47;;;;;;;7.20;3.92;;;;;;;8.02;48.18;100540.63;4101746;28;20039;-67
2023/04/20 03:34:50;;;;;;;7.78;4.75;;;;;;;7.93;48.47;100534.31;4081384;29;20046;-68
2023/04/20 03:36:55;;;;;;;7.20;4.93;;;;;;;8.03;48.42;100534.63;4115475;28;20501;-67
2023/04/20 03:38:58;;;;;;;6.18;3.63;;;;;;;8.12;48.15;100540.84;4099030;28;20138;-67
2023/04/20 03:41:01;;;;;;;6.38;3.55;;;;;;;8.12;48.05;100533.09;4098596;28;20046;-67
2023/04/20 03:43:04;;;;;;;7.28;3.92;;;;;;;8.07;48.09;100532.09;4096990;28;20081;-67
2023/04/20 03:45:08;;;;;;;6.70;3.45;;;;;;;8.00;48.18;100529.38;4110432;28;20035;-67
2023/04/20 03:47:11;;;;;;;9.07;3.55;;;;;;;8.11;48.06;100531.34;4112636;28;20047;-67
2023/04/20 03:49:14;;;;;;;11.82;4.15;;;;;;;8.13;48.58;100535.75;4106977;28;20077;-68
2023/04/20 03:51:17;;;;;;;7.28;4.00;;;;;;;8.16;48.03;100529.75;4113095;28;20043;-67
2023/04/20 03:53:21;;;;;;;10.10;3.58;;;;;;;8.23;48.06;100523.88;4112699;28;20038;-67
2023/04/20 03:55:24;;;;;;;5.95;3.47;;;;;;;8.21;47.88;100522.97;4111281;28;20094;-67
2023/04/20 03:57:34;;;;;;;9.15;4.05;;;;;;;8.19;48.26;100529.81;4110042;28;20509;-61
2023/04/20 03:59:38;;;;;;;;;;;;;;;8.21;48.01;100528.16;4106165;28;20042;-61
2023/04/20 04:01:42;;;;;;;7.03;4.20;;;;;;;8.19;48.16;100525.53;4094450;28;19923;-61
2023/04/20 04:03:45;;;;;;;9.52;4.80;;;;;;;8.10;48.70;100524.41;4096171;28;20094;-61
2023/04/20 04:05:49;;;;;;;13.10;5.00;;;;;;;8.07;48.60;100519.16;4110754;28;20066;-67
2023/04/20 04:07:52;;;;;;;7.90;4.05;;;;;;;7.93;48.79;100518.78;4113356;28;20050;-67
2023/04/20 04:09:56;;;;;;;6.53;4.40;;;;;;;7.98;48.77;100523.25;4113775;28;20510;-67
2023/04/20 04:12:00;;;;;;;7.35;4.35;;;;;;;7.94;49.31;100512.78;4092246;28;20087;-67
2023/04/20 04:14:04;;;;;;;7.88;4.63;;;;;;;7.99;48.81;100517.25;4085837;29;20135;-67
2023/04/20 04:16:10;;;;;;;8.95;4.95;;;;;;;8.07;49.29;100520.03;4097836;28;20038;-67
2023/04/20 04:18:14;;;;;;;8.90;4.72;;;;;;;8.02;49.19;100525.09;4097964;28;20051;-68
2023/04/20 04:20:17;;;;;;;12.20;4.88;;;;;;;8.04;49.40;100526.03;4091159;28;20051;-67
2023/04/20 04:22:20;;;;;;;10.55;4.78;;;;;;;8.10;49.35;100524.41;4106068;28;20413;-67
2023/04/20 04:24:43;;;;;;;9.18;4.90;;;;;;;7.93;49.50;100526.56;4113813;28;20125;-67
2023/04/20 04:26:47;;;;;;;9.07;4.60;;;;;;;7.91;48.98;100526.53;4112739;28;20042;-67
2023/04/20 04:28:50;;;;;;;10.82;5.00;;;;;;;7.76;49.32;100524.41;4102319;28;20063;-67
2023/04/20 04:30:55;;;;;;;9.88;5.35;;;;;;;7.73;50.04;100533.81;4123752;28;20039;-67
2023/04/20 04:32:58;;;;;;;17.13;5.97;;;;;;;7.74;50.17;100525.19;4126526;28;20046;-68
2023/04/20 04:35:02;;;;;;;12.55;6.35;;;;;;;7.80;50.19;100525.38;4102888;28;20046;-67
2023/04/20 04:37:05;;;;;;;12.05;5.65;;;;;;;7.66;50.29;100531.03;4097953;28;20046;-68
2023/04/20 04:39:16;;;;;;;10.93;5.70;;;;;;;7.74;50.72;100531.28;4099859;28;20047;-67
2023/04/20 04:41:28;;;;;;;12.95;5.18;;;;;;;7.78;50.29;100519.28;4121788;28;20464;-67
2023/04/20 04:43:46;;;;;;;11.45;5.55;;;;;;;7.68;50.36;100519.03;4114187;28;20038;-67
2023/04/20 04:46:07;;;;;;;16.80;6.25;;;;;;;7.60;51.09;100523.13;4109930;28;20086;-67
2023/04/20 04:48:10;;;;;;;11.57;6.78;;;;;;;7.63;50.70;100530.09;4102186;28;20657;-67
2023/04/20 04:50:14;;;;;;;12.48;6.22;;;;;;;7.56;51.33;100521.28;4114068;28;20125;-67
2023/04/20 04:52:17;;;;;;;9.55;4.97;;;;;;;7.51;51.52;100528.06;4102564;28;20524;-67
2023/04/20 04:54:19;;;;;;;9.73;5.53;;;;;;;7.54;50.99;100519.50;4119721;28;20038;-69
2023/04/20 04:56:22;;;;;;;11.98;5.97;;;;;;;7.42;51.39;100526.09;4126513;23;20448;-72
2023/04/20 04:58:25;;;;;;;17.60;5.30;;;;;;;7.43;51.72;100529.53;4133640;28;20042;-72
2023/04/20 05:00:30;;;;;;;19.67;6.40;;;;;;;7.48;51.46;100515.03;4125465;28;20100;-72
2023/04/20 05:02:33;;;;;;;12.10;5.88;;;;;;;7.47;51.50;100518.44;4126187;28;20046;-73
2023/04/20 05:04:36;;;;;;;10.35;4.88;;;;;;;7.53;51.44;100520.34;4141498;28;20040;-72
2023/04/20 05:06:39;;;;;;;13.77;6.22;;;;;;;7.43;52.29;100519.19;4116581;28;20038;-72
2023/04/20 05:08:42;;;;;;;12.23;6.10;;;;;;;7.39;52.76;100527.69;4124199;28;20054;-72
2023/04/20 05:10:44;;;;;;;11.13;5.53;;;;;;;7.49;52.13;100527.13;4115814;28;20042;-72
2023/04/20 05:12:47;;;;;;;16.85;6.53;;;;;;;7.45;52.67;100530.47;4130489;28;20124;-73
2023/04/20 05:14:50;;;;;;;14.88;6.40;;;;;;;7.51;52.07;100523.75;4127191;28;20120;-72
2023/04/20 05:16:54;;;;;;;12.43;6.75;;;;;;;7.49;52.09;100520.25;4136347;28;20038;-72
2023/04/20 05:18:57;;;;;;;17.38;6.60;;;;;;;7.47;51.99;100526.22;4136726;28;20053;-72
2023/04/20 05:21:00;;;;;;;14.30;5.85;;;;;;;7.36;52.21;100527.59;4134551;28;20046;-72
2023/04/20 05:23:03;;;;;;;15.85;6.00;;;;;;;7.29;52.60;100522.28;4134098;28;20411;-72
2023/04/20 05:25:07;;;;;;;11.82;5.75;;;;;;;7.30;53.13;100518.88;4128999;28;20042;-72
2023/04/20 05:27:10;;;;;;;13.60;6.18;;;;;;;7.44;52.74;100515.78;4125629;28;20475;-72
2023/04/20 05:29:14;;;;;;;16.25;6.50;;;;;;;7.46;52.95;100516.69;4141933;28;20096;-72
2023/04/20 05:31:17;;;;;;;9.45;5.68;;;;;;;7.47;52.55;100521.03;4122885;28;20039;-72
2023/04/20 05:33:22;;;;;;;11.77;5.88;;;;;;;7.44;52.93;100520.94;4119621;28;20046;-72
2023/04/20 05:35:25;;;;;;;17.63;6.43;;;;;;;7.39;52.88;100520.84;4134528;28;20042;-72
2023/04/20 05:37:27;;;;;;;10.00;5.90;;;;;;;7.33;52.49;100520.66;4130069;28;20044;-72
2023/04/20 05:39:30;;;;;;;14.45;6.05;;;;;;;7.26;53.21;100516.16;4112311;28;20039;-72
2023/04/20 05:41:33;;;;;;;13.57;5.55;;;;;;;7.24;53.12;100526.44;4126282;28;20491;-72
2023/04/20 05:43:36;;;;;;;11.25;5.72;;;;;;;7.33;53.13;100521.53;4117394;28;20437;-72
2023/04/20 05:45:39;;;;;;;10.65;5.35;;;;;;;7.31;52.62;100520.59;4139274;28;20046;-72
2023/04/20 05:47:42;;;;;;;14.10;6.28;;;;;;;7.32;52.85;100527.53;4133053;28;20483;-72
2023/04/20 05:49:46;;;;;;;8.82;5.10;;;;;;;7.24;52.60;100529.03;4132980;28;20057;-72
2023/04/20 05:51:49;;;;;;;14.73;5.60;;;;;;;7.34;52.40;100523.28;4129615;28;20042;-72
2023/04/20 05:53:51;;;;;;;13.18;5.45;;;;;;;7.28;52.80;100517.06;4138868;28;20507;-72
2023/04/20 05:55:54;;;;;;;10.50;5.88;;;;;;;7.40;52.65;100527.72;4114937;28;20047;-72
2023/04/20 05:57:57;;;;;;;11.45;5.95;;;;;;;7.43;52.49;100530.44;4146669;28;20038;-73
2023/04/20 06:00:00;;;;;;;15.68;6.65;;;;;;;7.40;52.91;100525.16;4142290;28;20030;-72
2023/04/20 06:02:14;;;;;;;9.40;4.70;;;;;;;7.48;52.10;100522.78;4142770;28;20500;-72
2023/04/20 06:04:17;;;;;;;11.63;5.60;;;;;;;7.42;52.81;100528.66;4137713;28;20046;-72
2023/04/20 06:06:22;;;;;;;9.73;5.70;;;;;;;7.46;52.71;100527.03;4129572;28;20066;-72
2023/04/20 06:08:24;;;;;;;8.48;5.25;;;;;;;7.54;52.66;100533.31;4147952;28;20038;-72
2023/04/20 06:10:31;;;;;;;8.05;4.85;;;;;;;7.57;52.15;100525.63;4144942;28;20045;-72
2023/04/20 06:12:34;;;;;;;13.25;5.70;;;;;;;7.61;52.24;100534.38;4142618;28;20442;-72
2023/04/20 06:14:37;;;;;;;13.40;5.68;;;;;;;7.64;52.41;100524.97;4140284;28;20051;-72
2023/04/20 06:16:40;;;;;;;8.40;5.20;;;;;;;7.64;52.06;100524.97;4137626;28;20038;-72
2023/04/20 06:18:43;;;;;;;10.30;5.85;;;;;;;7.76;52.12;100523.53;4111057;28;20042;-71
2023/04/20 06:20:46;;;;;;;11.50;5.43;;;;;;;7.75;52.00;100522.66;4149484;28;20041;-72
2023/04/20 06:22:50;;;;;;;13.60;6.00;;;;;;;7.75;52.46;100526.97;4146508;28;20472;-72
2023/04/20 06:24:53;;;;;;;9.93;5.47;;;;;;;7.79;52.07;100528.81;4144527;28;20041;-72
2023/04/20 06:26:56;;;;;;;8.38;5.43;;;;;;;7.86;51.89;100525.53;4140179;28;20049;-72
2023/04/20 06:28:58;;;;;;;8.48;5.32;;;;;;;7.90;52.50;100522.19;4121882;28;20527;-72
2023/04/20 06:31:01;;;;;;;10.95;5.75;;;;;;;8.01;51.80;100531.09;4134791;28;20050;-72
2023/04/20 06:33:04;;;;;;;10.52;5.38;;;;;;;7.98;52.16;100535.34;4144258;28;20584;-72
2023/04/20 06:35:08;;;;;;;7.40;5.03;;;;;;;8.07;52.07;100530.38;4147046;28;20042;-72
2023/04/20 06:37:10;;;;;;;10.68;5.18;;;;;;;8.13;51.56;100524.50;4127167;28;20038;-72
2023/04/20 06:39:16;;;;;;;9.00;4.95;;;;;;;8.07;51.79;100539.88;4125967;28;20043;-72
2023/04/20 06:41:19;;;;;;;12.68;6.15;;;;;;;8.03;52.43;100533.72;4131130;28;20042;-72
2023/04/20 06:43:22;;;;;;;8.88;5.05;;;;;;;8.08;52.79;100526.09;4136900;28;20054;-72
2023/04/20 06:45:25;;;;;;;12.25;5.80;;;;;;;8.26;51.62;100525.66;4123824;28;20046;-72
2023/04/20 06:47:32;;;;;;;7.90;4.70;;;;;;;8.19;51.75;100529.81;4148341;28;20044;-73
2023/04/20 06:49:36;;;;;;;9.80;5.70;;;;;;;8.18;52.03;100530.66;4106334;28;20038;-72
2023/04/20 06:51:39;;;;;;;8.30;5.88;;;;;;;8.31;51.90;100527.53;4143008;28;20434;-72
2023/04/20 06:53:42;;;;;;;9.15;5.15;;;;;;;8.28;51.77;100529.16;4126716;28;20054;-72
2023/04/20 06:55:46;;;;;;;11.32;4.95;;;;;;;8.23;51.98;100531.66;4136501;28;20471;-75
2023/04/20 06:57:49;;;;;;;10.70;5.05;;;;;;;8.19;52.83;100520.34;4142290;28;20042;-73
2023/04/20 06:59:52;;;;;;;11.73;5.20;;;;;;;8.36;52.80;100525.91;4104980;28;20045;-72
2023/04/20 07:01:55;;;;;;;8.80;5.40;;;;;;;8.47;52.13;100523.63;4144664;28;20049;-72
2023/04/20 07:03:58;;;;;;;9.30;4.93;;;;;;;8.58;51.88;100518.69;4140665;28;20034;-72
2023/04/20 07:06:01;;;;;;;8.75;4.70;;;;;;;8.65;51.57;100520.59;4136439;28;20061;-72
2023/04/20 07:08:04;;;;;;;9.35;5.28;;;;;;;8.64;51.40;100523.16;4099260;28;20135;-72
2023/04/20 07:10:08;;;;;;;12.68;5.20;;;;;;;8.49;51.47;100526.28;4118527;28;20473;-72
2023/04/20 07:12:14;;;;;;;14.83;5.97;;;;;;;8.41;52.72;100522.56;4124456;28;20109;-72
2023/04/20 07:14:17;;;;;;;9.13;5.70;;;;;;;8.47;52.38;100526.22;4139016;28;20504;-72
2023/04/20 07:16:20;;;;;;;10.68;5.63;;;;;;;8.65;52.31;100514.53;4131824;28;20060;-72
2023/04/20 07:18:23;;;;;;;11.20;5.22;;;;;;;8.73;51.46;100519.06;4136371;28;20082;-71
2023/04/20 07:20:26;;;;;;;15.27;5.35;;;;;;;8.66;52.00;100519.75;4146558;28;20038;-72
2023/04/20 07:22:29;;;;;;;12.20;5.18;;;;;;;8.79;51.96;100517.44;4142812;28;20414;-72
2023/04/20 07:24:32;;;;;;;10.60;5.32;;;;;;;8.88;51.72;100515.06;4137676;28;20070;-71
2023/04/20 07:26:34;;;;;;;9.65;5.10;;;;;;;9.15;51.32;100511.31;4138921;28;20038;-71
2023/04/20 07:28:39;;;;;;;9.40;5.05;;;;;;;9.30;51.21;100511.63;4132089;28;20042;-72
2023/04/20 07:30:42;;;;;;;10.88;4.95;;;;;;;9.64;50.43;100511.38;4132864;28;20519;-71
2023/04/20 07:32:44;;;;;;;9.10;4.70;;;;;;;9.70;50.40;100507.19;4143104;28;20041;-72
2023/04/20 07:34:47;;;;;;;10.85;5.10;;;;;;;9.79;48.92;100503.88;4141884;28;20124;-72
2023/04/20 07:36:50;;;;;;;9.52;6.05;;;;;;;9.69;49.71;100513.22;4137085;28;20034;-71
2023/04/20 07:38:53;;;;;;;11.63;6.57;;;;;;;9.84;50.20;100509.16;4134552;28;20034;-71
2023/04/20 07:40:56;;;;;;;10.55;5.97;;;;;;;9.91;50.10;100506.69;4134043;28;20050;-72
2023/04/20 07:42:59;;;;;;;9.77;5.85;;;;;;;9.90;49.91;100504.06;4127024;28;20104;-72
2023/04/20 07:45:03;;;;;;;8.63;5.40;;;;;;;9.89;49.70;100503.19;4142933;28;20066;-72
2023/04/20 07:47:06;;;;;;;9.32;5.22;;;;;;;9.99;49.64;100498.16;4140889;28;20042;-72
2023/04/20 07:49:09;;;;;;;9.25;5.45;;;;;;;9.99;50.21;100504.25;4135042;28;20496;-72
2023/04/20 07:51:12;;;;;;;9.05;5.88;;;;;;;10.28;47.84;100496.94;4130119;28;20038;-72
2023/04/20 07:53:14;;;;;;;10.00;5.10;;;;;;;10.14;48.02;100501.03;4142124;28;20072;-72
2023/04/20 07:55:18;;;;;;;11.50;5.47;;;;;;;9.97;49.00;100503.31;4140822;28;20113;-72
2023/04/20 07:57:20;;;;;;;8.80;5.25;;;;;;;10.03;48.87;100499.97;4138162;28;20044;-72
2023/04/20 07:59:23;;;;;;;7.95;4.75;;;;;;;10.10;48.86;100501.81;4136892;28;20084;-71
2023/04/20 08:01:27;;;;;;;9.43;5.25;;;;;;;10.07;48.45;100492.25;4131435;28;20042;-72
2023/04/20 08:03:32;;;;;;;10.15;4.93;;;;;;;10.15;49.15;100497.59;4137772;28;20038;-72
2023/04/20 08:05:37;;;;;;;10.63;5.13;;;;;;;10.10;48.46;100497.53;4144566;28;20046;-72
2023/04/20 08:07:40;;;;;;;8.25;4.20;;;;;;;10.07;48.64;100501.78;4140538;28;20064;-72
2023/04/20 08:09:43;;;;;;;11.25;4.43;;;;;;;10.07;48.99;100494.84;4124670;28;20041;-72
2023/04/20 08:11:46;;;;;;;12.30;5.47;;;;;;;10.23;48.95;100489.91;4134682;28;20408;-72
2023/04/20 08:13:48;;;;;;;12.05;5.63;;;;;;;10.62;47.81;100481.00;4131960;28;20043;-72
2023/04/20 08:15:51;;;;;;;9.73;5.72;;;;;;;10.66;48.29;100488.00;4127969;28;20113;-72
2023/04/20 08:17:56;;;;;;;9.02;5.28;;;;;;;10.55;48.26;100489.56;4123513;28;20520;-72
2023/04/20 08:19:59;;;;;;;9.10;5.75;;;;;;;10.61;48.38;100481.84;4139709;28;20042;-73
2023/04/20 08:22:01;;;;;;;12.63;5.57;;;;;;;10.63;48.45;100477.53;4119132;28;20402;-72
2023/04/20 08:24:06;;;;;;;9.52;5.47;;;;;;;10.84;48.50;100471.78;4131518;28;20038;-72
2023/04/20 08:26:14;;;;;;;10.60;5.65;;;;;;;11.06;48.41;100472.94;4123050;28;20836;-73
2023/04/20 08:28:17;;;;;;;10.63;5.93;;;;;;;11.02;47.74;100465.94;4142900;28;20105;-72
2023/04/20 08:30:35;;;;;;;12.82;5.45;;;;;;;10.88;48.72;100470.06;4121304;28;20042;-72
2023/04/20 08:32:39;;;;;;;9.90;5.18;;;;;;;11.00;48.37;100460.72;4118747;28;20407;-72
2023/04/20 08:34:44;;;;;;;16.48;5.85;;;;;;;11.05;48.27;100468.56;4115441;28;20077;-72
2023/04/20 08:36:48;;;;;;;12.52;5.95;;;;;;;11.39;46.53;100466.38;4138205;28;20088;-72
2023/04/20 08:38:56;;;;;;;10.00;5.75;;;;;;;11.27;47.84;100456.72;4120610;28;20037;-72
2023/04/20 08:40:59;;;;;;;15.90;6.40;;;;;;;11.45;47.60;100458.63;4136063;28;20116;-72
2023/04/20 08:43:02;;;;;;;15.85;7.00;;;;;;;11.44;47.21;100463.81;4137426;28;20105;-72
2023/04/20 08:45:06;;;;;;;11.50;6.35;;;;;;;11.60;47.16;100463.09;4131655;28;20042;-72
2023/04/20 08:47:09;;;;;;;14.90;6.25;;;;;;;11.53;46.62;100464.81;4131743;28;20084;-72
2023/04/20 08:49:14;;;;;;;7.85;5.47;;;;;;;11.38;47.09;100466.38;4139775;28;20042;-72
2023/04/20 08:51:18;;;;;;;18.17;6.05;;;;;;;11.46;47.09;100468.19;4141781;28;20046;-73
2023/04/20 08:53:21;;;;;;;9.43;6.40;;;;;;;11.40;47.15;100465.50;4137881;28;20039;-72
2023/04/20 08:55:24;;;;;;;8.18;4.95;;;;;;;11.39;47.11;100474.19;4135643;28;20040;-72
2023/04/20 08:57:27;;;;;;;13.35;5.85;;;;;;;11.63;47.59;100463.13;4134222;28;20038;-72
2023/04/20 08:59:30;;;;;;;8.13;5.18;;;;;;;11.63;47.57;100450.13;4136327;28;20056;-72
2023/04/20 09:01:34;;;;;;;10.60;6.07;;;;;;;11.69;47.48;100454.50;4136255;28;20041;-72
2023/04/20 09:03:39;;;;;;;10.82;5.55;;;;;;;11.76;47.44;100458.94;4121972;28;20038;-72
2023/04/20 09:05:45;;;;;;;11.15;6.10;;;;;;;11.84;47.20;100459.88;4136232;28;20099;-72
2023/04/20 09:07:53;;;;;;;10.07;5.22;;;;;;;11.46;47.44;100457.78;4133546;28;20551;-72
2023/04/20 09:09:56;;;;;;;12.70;6.35;;;;;;;11.36;48.21;100455.94;4114674;28;20038;-73
2023/04/20 09:12:02;;;;;;;12.13;6.45;;;;;;;11.36;47.83;100450.72;4143891;28;20121;-73
2023/04/20 09:14:08;;;;;;;8.55;5.32;;;;;;;11.42;47.84;100449.91;4124454;28;20051;-72
2023/04/20 09:16:12;;;;;;;11.82;5.78;;;;;;;11.60;46.87;100444.88;4137422;28;20053;-72
2023/04/20 09:18:16;;;;;;;17.70;7.73;;;;;;;11.77;46.77;100438.94;4136484;28;20038;-72
2023/04/20 09:20:28;;;;;;;10.25;5.07;;;;;;;11.36;47.41;100440.31;4133196;28;20412;-72
2023/04/20 09:22:32;;;;;;;9.45;5.35;;;;;;;11.57;47.89;100438.78;4136513;28;20038;-72
2023/04/20 09:24:37;;;;;;;11.32;5.03;;;;;;;11.87;47.21;100427.75;4141125;28;20038;-72
2023/04/20 09:26:40;;;;;;;9.43;5.85;;;;;;;12.28;46.54;100436.78;4141091;28;20030;-72
2023/04/20 09:28:45;;;;;;;11.15;5.80;;;;;;;12.62;45.29;100434.41;4122278;28;20133;-72
2023/04/20 09:30:50;;;;;;;9.15;5.93;;;;;;;12.47;45.42;100430.84;4118418;28;20048;-73
2023/04/20 09:33:02;;;;;;;11.73;6.50;;;;;;;12.57;45.26;100429.13;4114059;28;20046;-72
2023/04/20 09:35:06;;;;;;;10.25;6.22;;;;;;;12.21;45.60;100426.31;4116130;28;20479;-73
2023/04/20 09:37:09;;;;;;;11.63;5.40;;;;;;;12.23;45.90;100419.38;4126267;28;20094;-73
2023/04/20 09:39:16;;;;;;;10.13;5.70;;;;;;;12.13;46.47;100409.75;4140817;28;20093;-72
2023/04/20 09:41:21;;;;;;;10.90;4.85;;;;;;;12.07;46.77;100414.91;4120957;28;20540;-73